sensor_id;sensor_type;location;lat;lon;timestamp;pressure;altitude;pressure_sealevel;temperature;humidity
24752;BME280;27246;52.376;4.628;2023-07-08T00:03:50;101651.31;;;22.22;52.92
24752;BME280;27246;52.376;4.628;2023-07-08T00:08:52;101648.22;;;22.12;53.62
24752;BME280;27246;52.376;4.628;2023-07-08T00:13:54;101644.03;;;22.03;54.77
24752;BME280;27246;52.376;4.628;2023-07-08T00:18:56;101638.56;;;21.89;55.91
24752;BME280;27246;52.376;4.628;2023-07-08T00:23:59;101640.13;;;21.85;57.11
24752;BME280;27246;52.376;4.628;2023-07-08T00:29:02;101630.75;;;21.80;58.28
24752;BME280;27246;52.376;4.628;2023-07-08T00:34:05;101633.59;;;21.73;59.77
24752;BME280;27246;52.376;4.628;2023-07-08T00:39:13;101631.53;;;21.68;60.44
24752;BME280;27246;52.376;4.628;2023-07-08T00:44:17;101626.44;;;21.58;60.98
24752;BME280;27246;52.376;4.628;2023-07-08T00:49:41;101629.84;;;21.42;61.97
24752;BME280;27246;52.376;4.628;2023-07-08T00:54:45;101627.97;;;21.36;62.24
24752;BME280;27246;52.376;4.628;2023-07-08T00:59:55;101619.88;;;21.28;62.74
24752;BME280;27246;52.376;4.628;2023-07-08T01:05:05;101614.56;;;21.20;62.81
24752;BME280;27246;52.376;4.628;2023-07-08T01:10:20;101616.53;;;21.19;62.86
24752;BME280;27246;52.376;4.628;2023-07-08T01:15:31;101611.84;;;21.13;62.54
24752;BME280;27246;52.376;4.628;2023-07-08T01:20:35;101614.25;;;21.09;62.71
24752;BME280;27246;52.376;4.628;2023-07-08T01:25:37;101603.97;;;21.03;62.84
24752;BME280;27246;52.376;4.628;2023-07-08T01:30:41;101598.38;;;21.03;62.30
24752;BME280;27246;52.376;4.628;2023-07-08T01:35:45;101593.44;;;20.98;61.99
24752;BME280;27246;52.376;4.628;2023-07-08T01:40:53;101588.22;;;20.84;62.46
24752;BME280;27246;52.376;4.628;2023-07-08T01:45:58;101578.50;;;20.86;62.62
24752;BME280;27246;52.376;4.628;2023-07-08T01:51:07;101590.59;;;20.80;62.38
24752;BME280;27246;52.376;4.628;2023-07-08T01:56:10;101587.25;;;20.71;62.64
24752;BME280;27246;52.376;4.628;2023-07-08T02:01:12;101580.59;;;20.72;62.92
24752;BME280;27246;52.376;4.628;2023-07-08T02:06:14;101566.72;;;20.59;63.44
24752;BME280;27246;52.376;4.628;2023-07-08T02:11:16;101563.47;;;20.55;63.71
24752;BME280;27246;52.376;4.628;2023-07-08T02:16:18;101573.00;;;20.48;64.66
24752;BME280;27246;52.376;4.628;2023-07-08T02:21:20;101551.38;;;20.36;64.73
24752;BME280;27246;52.376;4.628;2023-07-08T02:26:23;101560.66;;;20.30;65.41
24752;BME280;27246;52.376;4.628;2023-07-08T02:31:25;101553.56;;;20.34;65.39
24752;BME280;27246;52.376;4.628;2023-07-08T02:36:27;101548.25;;;20.19;65.96
24752;BME280;27246;52.376;4.628;2023-07-08T02:41:33;101546.56;;;20.18;66.24
24752;BME280;27246;52.376;4.628;2023-07-08T02:46:35;101543.81;;;20.12;66.26
24752;BME280;27246;52.376;4.628;2023-07-08T02:51:40;101535.44;;;20.12;66.53
24752;BME280;27246;52.376;4.628;2023-07-08T02:56:43;101531.47;;;19.94;67.24
24752;BME280;27246;52.376;4.628;2023-07-08T03:01:45;101540.75;;;19.88;67.72
24752;BME280;27246;52.376;4.628;2023-07-08T03:06:50;101528.94;;;19.86;68.32
24752;BME280;27246;52.376;4.628;2023-07-08T03:11:51;101530.91;;;19.79;68.58
24752;BME280;27246;52.376;4.628;2023-07-08T03:16:53;101530.25;;;19.84;68.55
24752;BME280;27246;52.376;4.628;2023-07-08T03:21:55;101532.88;;;19.72;69.02
24752;BME280;27246;52.376;4.628;2023-07-08T03:26:58;101533.31;;;19.62;69.36
24752;BME280;27246;52.376;4.628;2023-07-08T03:32:03;101528.16;;;19.66;69.44
24752;BME280;27246;52.376;4.628;2023-07-08T03:37:08;101534.38;;;19.61;69.52
24752;BME280;27246;52.376;4.628;2023-07-08T03:42:10;101532.09;;;19.51;70.34
24752;BME280;27246;52.376;4.628;2023-07-08T03:47:12;101533.75;;;19.59;69.59
24752;BME280;27246;52.376;4.628;2023-07-08T03:52:15;101532.00;;;19.65;68.75
24752;BME280;27246;52.376;4.628;2023-07-08T03:57:18;101537.59;;;19.65;69.26
24752;BME280;27246;52.376;4.628;2023-07-08T04:02:21;101546.59;;;19.67;68.93
24752;BME280;27246;52.376;4.628;2023-07-08T04:07:23;101538.88;;;19.75;68.90
24752;BME280;27246;52.376;4.628;2023-07-08T04:12:27;101545.75;;;19.73;69.21
24752;BME280;27246;52.376;4.628;2023-07-08T04:17:29;101543.16;;;19.78;68.52
24752;BME280;27246;52.376;4.628;2023-07-08T04:22:33;101544.22;;;19.77;68.38
24752;BME280;27246;52.376;4.628;2023-07-08T04:27:38;101545.75;;;19.66;68.61
24752;BME280;27246;52.376;4.628;2023-07-08T04:32:40;101535.47;;;19.73;68.45
24752;BME280;27246;52.376;4.628;2023-07-08T04:37:45;101543.63;;;19.62;68.71
24752;BME280;27246;52.376;4.628;2023-07-08T04:42:49;101541.25;;;19.72;68.32
24752;BME280;27246;52.376;4.628;2023-07-08T04:47:52;101542.94;;;19.73;68.20
24752;BME280;27246;52.376;4.628;2023-07-08T04:52:54;101542.75;;;19.68;68.23
24752;BME280;27246;52.376;4.628;2023-07-08T04:57:56;101547.44;;;19.81;68.18
24752;BME280;27246;52.376;4.628;2023-07-08T05:02:58;101548.91;;;19.83;68.06
24752;BME280;27246;52.376;4.628;2023-07-08T05:08:03;101551.56;;;19.71;68.18
24752;BME280;27246;52.376;4.628;2023-07-08T05:13:05;101542.75;;;19.68;68.36
24752;BME280;27246;52.376;4.628;2023-07-08T05:18:07;101550.44;;;19.79;67.92
24752;BME280;27246;52.376;4.628;2023-07-08T05:23:09;101538.22;;;19.80;67.58
24752;BME280;27246;52.376;4.628;2023-07-08T05:28:10;101526.56;;;19.83;67.51
24752;BME280;27246;52.376;4.628;2023-07-08T05:33:12;101534.53;;;19.86;67.13
24752;BME280;27246;52.376;4.628;2023-07-08T05:38:14;101534.94;;;19.90;67.17
24752;BME280;27246;52.376;4.628;2023-07-08T05:43:17;101539.22;;;19.92;66.92
24752;BME280;27246;52.376;4.628;2023-07-08T05:48:19;101535.97;;;19.95;67.15
24752;BME280;27246;52.376;4.628;2023-07-08T05:53:24;101548.59;;;20.05;66.83
24752;BME280;27246;52.376;4.628;2023-07-08T05:58:25;101541.66;;;20.14;66.58
24752;BME280;27246;52.376;4.628;2023-07-08T06:03:27;101545.94;;;20.16;65.59
24752;BME280;27246;52.376;4.628;2023-07-08T06:08:33;101549.31;;;20.25;65.37
24752;BME280;27246;52.376;4.628;2023-07-08T06:13:35;101535.53;;;20.30;65.03
24752;BME280;27246;52.376;4.628;2023-07-08T06:18:37;101536.94;;;20.39;64.67
24752;BME280;27246;52.376;4.628;2023-07-08T06:23:39;101525.63;;;20.34;64.37
24752;BME280;27246;52.376;4.628;2023-07-08T06:28:41;101530.22;;;20.47;64.79
24752;BME280;27246;52.376;4.628;2023-07-08T06:33:42;101530.22;;;20.47;63.55
24752;BME280;27246;52.376;4.628;2023-07-08T06:38:44;101541.72;;;20.64;63.97
24752;BME280;27246;52.376;4.628;2023-07-08T06:43:46;101546.03;;;20.67;63.39
24752;BME280;27246;52.376;4.628;2023-07-08T06:48:51;101538.03;;;20.70;63.33
24752;BME280;27246;52.376;4.628;2023-07-08T06:53:52;101532.94;;;20.86;63.49
24752;BME280;27246;52.376;4.628;2023-07-08T06:58:54;101540.16;;;20.93;62.32
24752;BME280;27246;52.376;4.628;2023-07-08T07:03:56;101534.69;;;21.05;62.38
24752;BME280;27246;52.376;4.628;2023-07-08T07:08:58;101535.38;;;21.19;61.99
24752;BME280;27246;52.376;4.628;2023-07-08T07:14:00;101535.31;;;21.26;61.40
24752;BME280;27246;52.376;4.628;2023-07-08T07:19:24;101526.38;;;21.35;60.89
24752;BME280;27246;52.376;4.628;2023-07-08T07:24:26;101512.09;;;21.44;60.97
24752;BME280;27246;52.376;4.628;2023-07-08T07:29:39;101519.47;;;21.56;59.48
24752;BME280;27246;52.376;4.628;2023-07-08T07:34:42;101516.50;;;21.70;58.89
24752;BME280;27246;52.376;4.628;2023-07-08T07:39:43;101519.25;;;21.88;59.51
24752;BME280;27246;52.376;4.628;2023-07-08T07:44:46;101518.56;;;22.05;59.38
24752;BME280;27246;52.376;4.628;2023-07-08T07:49:48;101512.47;;;22.26;59.03
24752;BME280;27246;52.376;4.628;2023-07-08T07:54:54;101517.38;;;22.43;58.18
24752;BME280;27246;52.376;4.628;2023-07-08T07:59:56;101522.03;;;22.61;57.23
24752;BME280;27246;52.376;4.628;2023-07-08T08:04:58;101521.69;;;22.81;56.22
24752;BME280;27246;52.376;4.628;2023-07-08T08:10:01;101518.75;;;22.99;56.11
24752;BME280;27246;52.376;4.628;2023-07-08T08:15:03;101513.72;;;23.25;55.51
24752;BME280;27246;52.376;4.628;2023-07-08T08:20:06;101515.28;;;23.44;53.41
24752;BME280;27246;52.376;4.628;2023-07-08T08:25:08;101507.44;;;23.58;53.13
24752;BME280;27246;52.376;4.628;2023-07-08T08:30:10;101503.38;;;23.78;52.74
24752;BME280;27246;52.376;4.628;2023-07-08T08:35:13;101503.03;;;23.91;52.13
24752;BME280;27246;52.376;4.628;2023-07-08T08:40:16;101523.28;;;24.22;51.81
24752;BME280;27246;52.376;4.628;2023-07-08T08:45:23;101533.44;;;24.40;51.26
24752;BME280;27246;52.376;4.628;2023-07-08T08:50:36;101544.75;;;24.57;50.50
24752;BME280;27246;52.376;4.628;2023-07-08T08:55:41;101543.66;;;24.74;50.16
24752;BME280;27246;52.376;4.628;2023-07-08T09:05:48;101527.00;;;25.07;49.96
24752;BME280;27246;52.376;4.628;2023-07-08T09:11:00;101524.84;;;25.31;48.96
24752;BME280;27246;52.376;4.628;2023-07-08T09:16:16;101526.66;;;25.42;49.17
24752;BME280;27246;52.376;4.628;2023-07-08T09:21:24;101523.38;;;25.72;48.92
24752;BME280;27246;52.376;4.628;2023-07-08T09:26:31;101529.97;;;25.83;47.72
24752;BME280;27246;52.376;4.628;2023-07-08T09:31:39;101521.72;;;25.99;48.02
24752;BME280;27246;52.376;4.628;2023-07-08T09:37:21;101526.38;;;26.10;47.25
24752;BME280;27246;52.376;4.628;2023-07-08T09:42:34;101519.97;;;26.20;47.17
24752;BME280;27246;52.376;4.628;2023-07-08T09:47:37;101521.78;;;26.31;47.32
24752;BME280;27246;52.376;4.628;2023-07-08T09:52:42;101528.00;;;26.60;46.30
24752;BME280;27246;52.376;4.628;2023-07-08T09:57:45;101531.31;;;26.89;46.86
24752;BME280;27246;52.376;4.628;2023-07-08T10:02:56;101527.47;;;27.06;45.78
24752;BME280;27246;52.376;4.628;2023-07-08T10:08:15;101529.88;;;27.24;45.09
24752;BME280;27246;52.376;4.628;2023-07-08T10:13:37;101528.53;;;26.94;46.26
24752;BME280;27246;52.376;4.628;2023-07-08T10:18:40;101522.38;;;27.50;43.89
24752;BME280;27246;52.376;4.628;2023-07-08T10:23:52;101523.56;;;27.60;44.04
24752;BME280;27246;52.376;4.628;2023-07-08T10:45:03;101515.25;;;28.16;42.57
24752;BME280;27246;52.376;4.628;2023-07-08T10:50:29;101517.53;;;28.45;43.75
24752;BME280;27246;52.376;4.628;2023-07-08T10:55:48;101527.75;;;28.51;42.70
24752;BME280;27246;52.376;4.628;2023-07-08T11:01:10;101524.06;;;28.66;41.97
24752;BME280;27246;52.376;4.628;2023-07-08T11:06:29;101515.88;;;28.69;41.72
24752;BME280;27246;52.376;4.628;2023-07-08T11:11:58;101507.66;;;28.73;42.49
24752;BME280;27246;52.376;4.628;2023-07-08T11:17:19;101501.66;;;29.00;40.99
24752;BME280;27246;52.376;4.628;2023-07-08T11:22:22;101505.03;;;29.33;41.53
24752;BME280;27246;52.376;4.628;2023-07-08T11:27:25;101506.72;;;29.19;40.55
24752;BME280;27246;52.376;4.628;2023-07-08T11:32:34;101504.09;;;29.43;39.92
24752;BME280;27246;52.376;4.628;2023-07-08T11:37:37;101506.66;;;29.44;40.23
24752;BME280;27246;52.376;4.628;2023-07-08T11:42:41;101494.38;;;29.64;40.04
24752;BME280;27246;52.376;4.628;2023-07-08T11:48:11;101500.22;;;29.88;41.42
24752;BME280;27246;52.376;4.628;2023-07-08T11:53:35;101487.13;;;29.98;39.95
24752;BME280;27246;52.376;4.628;2023-07-08T12:09:26;101480.16;;;30.19;38.96
24752;BME280;27246;52.376;4.628;2023-07-08T12:14:35;101478.25;;;30.49;38.09
24752;BME280;27246;52.376;4.628;2023-07-08T12:19:44;101475.69;;;30.47;38.37
24752;BME280;27246;52.376;4.628;2023-07-08T12:24:56;101479.56;;;30.91;35.73
24752;BME280;27246;52.376;4.628;2023-07-08T12:30:00;101475.94;;;30.56;37.47
24752;BME280;27246;52.376;4.628;2023-07-08T12:35:04;101471.97;;;30.52;38.51
24752;BME280;27246;52.376;4.628;2023-07-08T12:40:13;101471.69;;;30.83;37.30
24752;BME280;27246;52.376;4.628;2023-07-08T12:45:17;101468.69;;;30.98;35.75
24752;BME280;27246;52.376;4.628;2023-07-08T12:50:20;101472.03;;;31.29;36.32
24752;BME280;27246;52.376;4.628;2023-07-08T12:55:25;101466.94;;;31.26;38.20
24752;BME280;27246;52.376;4.628;2023-07-08T13:00:38;101463.25;;;31.26;37.98
24752;BME280;27246;52.376;4.628;2023-07-08T13:05:41;101457.38;;;31.41;37.72
24752;BME280;27246;52.376;4.628;2023-07-08T13:10:59;101460.03;;;31.57;34.15
24752;BME280;27246;52.376;4.628;2023-07-08T13:16:04;101466.88;;;31.75;34.47
24752;BME280;27246;52.376;4.628;2023-07-08T13:21:09;101459.44;;;31.79;34.73
24752;BME280;27246;52.376;4.628;2023-07-08T13:26:14;101460.91;;;31.76;34.27
24752;BME280;27246;52.376;4.628;2023-07-08T13:31:19;101462.84;;;31.14;34.57
24752;BME280;27246;52.376;4.628;2023-07-08T13:36:33;101461.09;;;31.61;33.69
24752;BME280;27246;52.376;4.628;2023-07-08T13:41:35;101466.28;;;31.78;31.61
24752;BME280;27246;52.376;4.628;2023-07-08T13:47:17;101458.91;;;31.77;33.48
24752;BME280;27246;52.376;4.628;2023-07-08T13:52:21;101460.03;;;32.00;32.24
24752;BME280;27246;52.376;4.628;2023-07-08T13:57:37;101461.94;;;32.04;32.98
24752;BME280;27246;52.376;4.628;2023-07-08T14:02:43;101454.69;;;32.12;32.17
24752;BME280;27246;52.376;4.628;2023-07-08T14:07:46;101457.19;;;32.00;31.63
24752;BME280;27246;52.376;4.628;2023-07-08T14:12:48;101453.06;;;31.44;33.04
24752;BME280;27246;52.376;4.628;2023-07-08T14:17:50;101468.34;;;31.72;30.20
24752;BME280;27246;52.376;4.628;2023-07-08T14:22:53;101476.00;;;31.53;31.13
24752;BME280;27246;52.376;4.628;2023-07-08T14:27:55;101481.41;;;31.54;31.93
24752;BME280;27246;52.376;4.628;2023-07-08T14:32:58;101485.09;;;31.55;32.56
24752;BME280;27246;52.376;4.628;2023-07-08T14:38:01;101477.97;;;31.33;31.37
24752;BME280;27246;52.376;4.628;2023-07-08T14:43:06;101480.66;;;31.43;35.26
24752;BME280;27246;52.376;4.628;2023-07-08T14:48:09;101473.53;;;30.68;38.22
24752;BME280;27246;52.376;4.628;2023-07-08T14:53:16;101478.09;;;31.23;36.44
24752;BME280;27246;52.376;4.628;2023-07-08T14:58:23;101466.53;;;30.85;37.72
24752;BME280;27246;52.376;4.628;2023-07-08T15:03:26;101468.41;;;31.24;36.53
24752;BME280;27246;52.376;4.628;2023-07-08T15:08:28;101472.72;;;30.92;37.09
24752;BME280;27246;52.376;4.628;2023-07-08T15:13:29;101466.97;;;30.68;38.27
24752;BME280;27246;52.376;4.628;2023-07-08T15:18:33;101469.22;;;31.00;37.93
24752;BME280;27246;52.376;4.628;2023-07-08T15:23:36;101465.50;;;30.76;38.79
24752;BME280;27246;52.376;4.628;2023-07-08T15:33:46;101475.56;;;30.28;39.24
24752;BME280;27246;52.376;4.628;2023-07-08T15:38:47;101477.47;;;30.73;38.79
24752;BME280;27246;52.376;4.628;2023-07-08T15:43:52;101471.66;;;29.80;40.49
24752;BME280;27246;52.376;4.628;2023-07-08T15:48:55;101478.44;;;29.79;40.94
24752;BME280;27246;52.376;4.628;2023-07-08T15:53:56;101465.78;;;30.05;40.23
24752;BME280;27246;52.376;4.628;2023-07-08T15:58:59;101462.38;;;29.59;41.79
24752;BME280;27246;52.376;4.628;2023-07-08T16:04:02;101464.34;;;29.63;42.68
24752;BME280;27246;52.376;4.628;2023-07-08T16:09:07;101468.09;;;29.48;41.69
24752;BME280;27246;52.376;4.628;2023-07-08T16:14:16;101465.41;;;29.12;43.13
24752;BME280;27246;52.376;4.628;2023-07-08T16:19:19;101462.00;;;29.16;42.52
24752;BME280;27246;52.376;4.628;2023-07-08T16:24:21;101462.00;;;29.05;42.49
24752;BME280;27246;52.376;4.628;2023-07-08T16:29:24;101467.66;;;29.00;42.33
24752;BME280;27246;52.376;4.628;2023-07-08T16:34:27;101461.50;;;28.78;43.21
24752;BME280;27246;52.376;4.628;2023-07-08T16:39:28;101463.75;;;28.86;44.34
24752;BME280;27246;52.376;4.628;2023-07-08T16:44:31;101472.53;;;28.79;44.77
24752;BME280;27246;52.376;4.628;2023-07-08T16:49:33;101464.59;;;28.91;45.39
24752;BME280;27246;52.376;4.628;2023-07-08T16:54:35;101453.59;;;28.59;45.29
24752;BME280;27246;52.376;4.628;2023-07-08T16:59:38;101459.53;;;28.68;45.21
24752;BME280;27246;52.376;4.628;2023-07-08T17:04:44;101453.31;;;28.61;45.95
24752;BME280;27246;52.376;4.628;2023-07-08T17:09:46;101441.16;;;28.55;46.26
24752;BME280;27246;52.376;4.628;2023-07-08T17:14:48;101444.00;;;28.60;46.46
24752;BME280;27246;52.376;4.628;2023-07-08T17:19:50;101443.13;;;28.65;47.12
24752;BME280;27246;52.376;4.628;2023-07-08T17:24:51;101439.16;;;28.71;46.97
24752;BME280;27246;52.376;4.628;2023-07-08T17:29:53;101437.47;;;28.34;47.00
24752;BME280;27246;52.376;4.628;2023-07-08T17:34:56;101426.72;;;28.36;47.80
24752;BME280;27246;52.376;4.628;2023-07-08T17:39:58;101435.78;;;28.28;47.53
24752;BME280;27246;52.376;4.628;2023-07-08T17:45:01;101434.34;;;28.15;48.01
24752;BME280;27246;52.376;4.628;2023-07-08T17:50:18;101436.63;;;28.13;48.14
24752;BME280;27246;52.376;4.628;2023-07-08T17:55:23;101438.31;;;28.04;49.21
24752;BME280;27246;52.376;4.628;2023-07-08T18:00:26;101444.53;;;28.01;50.19
24752;BME280;27246;52.376;4.628;2023-07-08T18:05:28;101432.06;;;27.97;49.87
24752;BME280;27246;52.376;4.628;2023-07-08T18:10:33;101440.59;;;28.02;50.08
24752;BME280;27246;52.376;4.628;2023-07-08T18:15:39;101438.53;;;27.77;48.89
24752;BME280;27246;52.376;4.628;2023-07-08T18:20:53;101439.94;;;27.84;48.87
24752;BME280;27246;52.376;4.628;2023-07-08T18:25:54;101439.94;;;27.74;49.05
24752;BME280;27246;52.376;4.628;2023-07-08T18:30:56;101444.75;;;27.73;49.48
24752;BME280;27246;52.376;4.628;2023-07-08T18:35:58;101453.22;;;27.73;49.42
24752;BME280;27246;52.376;4.628;2023-07-08T18:41:01;101450.91;;;27.60;50.33
24752;BME280;27246;52.376;4.628;2023-07-08T18:46:03;101450.91;;;27.60;50.02
24752;BME280;27246;52.376;4.628;2023-07-08T18:51:13;101461.91;;;27.57;50.36
24752;BME280;27246;52.376;4.628;2023-07-08T18:56:17;101462.19;;;27.50;51.02
24752;BME280;27246;52.376;4.628;2023-07-08T19:01:22;101459.09;;;27.51;51.08
24752;BME280;27246;52.376;4.628;2023-07-08T19:06:28;101464.44;;;27.48;51.26
24752;BME280;27246;52.376;4.628;2023-07-08T19:11:31;101467.81;;;27.45;51.60
24752;BME280;27246;52.376;4.628;2023-07-08T19:16:34;101466.97;;;27.39;52.00
24752;BME280;27246;52.376;4.628;2023-07-08T19:21:37;101468.31;;;27.26;52.63
24752;BME280;27246;52.376;4.628;2023-07-08T19:26:40;101473.94;;;27.26;52.99
24752;BME280;27246;52.376;4.628;2023-07-08T19:31:46;101471.44;;;27.25;53.29
24752;BME280;27246;52.376;4.628;2023-07-08T19:36:51;101466.75;;;27.03;52.89
24752;BME280;27246;52.376;4.628;2023-07-08T19:41:52;101469.53;;;26.98;52.73
24752;BME280;27246;52.376;4.628;2023-07-08T19:46:54;101468.16;;;27.01;53.17
24752;BME280;27246;52.376;4.628;2023-07-08T19:51:57;101476.91;;;26.99;53.63
24752;BME280;27246;52.376;4.628;2023-07-08T19:57:00;101477.44;;;26.96;53.35
24752;BME280;27246;52.376;4.628;2023-07-08T20:02:12;101471.78;;;26.91;53.36
24752;BME280;27246;52.376;4.628;2023-07-08T20:07:14;101476.53;;;26.85;53.52
24752;BME280;27246;52.376;4.628;2023-07-08T20:12:16;101471.13;;;26.79;53.68
24752;BME280;27246;52.376;4.628;2023-07-08T20:17:18;101474.41;;;26.65;54.23
24752;BME280;27246;52.376;4.628;2023-07-08T20:22:20;101490.75;;;26.63;54.50
24752;BME280;27246;52.376;4.628;2023-07-08T20:27:24;101493.47;;;26.53;54.47
24752;BME280;27246;52.376;4.628;2023-07-08T20:32:28;101484.66;;;26.44;55.27
24752;BME280;27246;52.376;4.628;2023-07-08T20:37:31;101487.19;;;26.46;55.75
24752;BME280;27246;52.376;4.628;2023-07-08T20:42:33;101495.06;;;26.44;56.39
24752;BME280;27246;52.376;4.628;2023-07-08T20:47:34;101506.00;;;26.35;56.18
24752;BME280;27246;52.376;4.628;2023-07-08T20:52:36;101518.09;;;26.30;56.39
24752;BME280;27246;52.376;4.628;2023-07-08T20:57:42;101519.50;;;26.28;56.17
24752;BME280;27246;52.376;4.628;2023-07-08T21:02:44;101513.81;;;26.23;55.98
24752;BME280;27246;52.376;4.628;2023-07-08T21:07:46;101518.00;;;26.20;56.16
24752;BME280;27246;52.376;4.628;2023-07-08T21:12:48;101524.50;;;26.21;56.58
24752;BME280;27246;52.376;4.628;2023-07-08T21:17:50;101521.03;;;26.13;58.24
24752;BME280;27246;52.376;4.628;2023-07-08T21:22:54;101522.06;;;26.02;58.69
24752;BME280;27246;52.376;4.628;2023-07-08T21:27:56;101513.84;;;26.01;58.79
24752;BME280;27246;52.376;4.628;2023-07-08T21:32:58;101504.50;;;25.95;58.82
24752;BME280;27246;52.376;4.628;2023-07-08T21:38:03;101498.00;;;25.94;60.50
24752;BME280;27246;52.376;4.628;2023-07-08T21:43:08;101507.50;;;25.88;60.97
24752;BME280;27246;52.376;4.628;2023-07-08T21:48:13;101504.03;;;25.81;62.06
24752;BME280;27246;52.376;4.628;2023-07-08T21:53:19;101512.94;;;25.73;62.97
24752;BME280;27246;52.376;4.628;2023-07-08T21:58:23;101510.34;;;25.66;63.85
24752;BME280;27246;52.376;4.628;2023-07-08T22:03:27;101514.28;;;25.65;64.58
24752;BME280;27246;52.376;4.628;2023-07-08T22:08:29;101515.66;;;25.63;64.90
24752;BME280;27246;52.376;4.628;2023-07-08T22:13:36;101519.78;;;25.55;65.17
24752;BME280;27246;52.376;4.628;2023-07-08T22:18:41;101529.84;;;25.51;66.01
24752;BME280;27246;52.376;4.628;2023-07-08T22:23:47;101533.22;;;25.48;66.86
24752;BME280;27246;52.376;4.628;2023-07-08T22:28:49;101538.75;;;25.43;67.45
24752;BME280;27246;52.376;4.628;2023-07-08T22:33:51;101551.34;;;25.35;67.79
24752;BME280;27246;52.376;4.628;2023-07-08T22:38:59;101553.50;;;25.28;68.50
24752;BME280;27246;52.376;4.628;2023-07-08T22:44:01;101547.53;;;25.24;69.12
24752;BME280;27246;52.376;4.628;2023-07-08T22:49:03;101548.78;;;25.16;69.35
24752;BME280;27246;52.376;4.628;2023-07-08T22:54:06;101558.34;;;25.15;69.47
24752;BME280;27246;52.376;4.628;2023-07-08T22:59:08;101549.81;;;25.10;70.22
24752;BME280;27246;52.376;4.628;2023-07-08T23:04:10;101551.19;;;25.08;70.40
24752;BME280;27246;52.376;4.628;2023-07-08T23:09:13;101548.13;;;25.09;70.59
24752;BME280;27246;52.376;4.628;2023-07-08T23:14:16;101546.41;;;25.08;69.78
24752;BME280;27246;52.376;4.628;2023-07-08T23:19:18;101543.00;;;25.06;69.79
24752;BME280;27246;52.376;4.628;2023-07-08T23:24:20;101546.41;;;25.08;70.51
24752;BME280;27246;52.376;4.628;2023-07-08T23:29:22;101537.38;;;25.06;70.59
24752;BME280;27246;52.376;4.628;2023-07-08T23:34:25;101538.41;;;25.00;71.85
24752;BME280;27246;52.376;4.628;2023-07-08T23:39:26;101535.53;;;24.95;72.39
24752;BME280;27246;52.376;4.628;2023-07-08T23:44:28;101531.78;;;24.89;72.69
24752;BME280;27246;52.376;4.628;2023-07-08T23:49:33;101526.06;;;24.84;73.46
24752;BME280;27246;52.376;4.628;2023-07-08T23:54:36;101526.84;;;24.80;74.02
24752;BME280;27246;52.376;4.628;2023-07-08T23:59:58;101532.91;;;24.71;74.18
